createdAt,value
2024-02-02T00:08:17.024Z,69.20
2024-02-02T00:18:21.660Z,69.26
2024-02-02T00:28:25.409Z,69.32
2024-02-02T00:38:29.060Z,69.26
2024-02-02T00:48:34.278Z,69.56
2024-02-02T00:58:37.807Z,69.41
2024-02-02T01:08:41.442Z,69.83
2024-02-02T01:18:45.300Z,69.44
2024-02-02T01:28:49.247Z,69.77
2024-02-02T01:38:52.726Z,69.64
2024-02-02T01:48:56.406Z,69.81
2024-02-02T01:59:00.370Z,69.64
2024-02-02T02:09:04.085Z,69.94
2024-02-02T02:19:07.804Z,69.85
2024-02-02T02:29:11.563Z,69.99
2024-02-02T02:39:15.929Z,69.90
2024-02-02T02:49:19.967Z,69.92
2024-02-02T02:59:24.021Z,70.04
2024-02-02T03:09:27.531Z,69.99
2024-02-02T03:19:31.694Z,70.25
2024-02-02T03:29:35.398Z,70.18
2024-02-02T03:39:39.079Z,70.57
2024-02-02T03:49:42.803Z,70.52
2024-02-02T03:59:46.436Z,70.58
2024-02-02T04:09:50.082Z,70.91
2024-02-02T04:19:53.678Z,70.97
2024-02-02T04:29:57.698Z,71.21
2024-02-02T04:40:01.759Z,71.45
2024-02-02T04:50:06.315Z,71.79
2024-02-02T05:00:10.763Z,71.78
2024-02-02T05:10:14.220Z,72.08
2024-02-02T05:20:18.082Z,72.25
2024-02-02T05:30:22.355Z,72.50
2024-02-02T05:40:25.841Z,72.71
2024-02-02T05:50:29.644Z,72.81
2024-02-02T06:00:33.167Z,73.07
2024-02-02T06:10:37.084Z,73.13
2024-02-02T06:20:40.803Z,73.52
2024-02-02T06:30:49.563Z,73.79
2024-02-02T06:40:53.007Z,73.83
2024-02-02T06:50:56.628Z,73.72
2024-02-02T07:01:00.401Z,74.01
2024-02-02T07:11:08.783Z,74.29
2024-02-02T07:21:13.801Z,74.48
2024-02-02T07:31:38.218Z,74.43
2024-02-02T07:41:41.941Z,74.64
2024-02-02T07:51:45.737Z,74.56
2024-02-02T08:01:49.343Z,74.54
2024-02-02T08:11:54.334Z,74.67
2024-02-02T08:21:57.767Z,74.93
2024-02-02T08:32:01.414Z,74.68
2024-02-02T08:42:09.864Z,74.78
2024-02-02T08:52:14.575Z,74.75
2024-02-02T09:02:47.344Z,75.01
2024-02-02T09:12:53.872Z,74.96
2024-02-02T09:22:58.191Z,74.82
2024-02-02T09:33:03.435Z,74.95
2024-02-02T09:43:09.211Z,74.72
2024-02-02T09:53:34.528Z,74.64
2024-02-02T10:03:55.843Z,74.51
2024-02-02T10:14:24.119Z,74.36
2024-02-02T10:24:46.904Z,74.38
2024-02-02T10:35:12.571Z,74.46
2024-02-02T10:45:44.424Z,74.08
2024-02-02T10:56:15.328Z,74.05
2024-02-02T11:06:28.331Z,73.70
2024-02-02T11:17:01.534Z,73.59
2024-02-02T11:27:18.693Z,73.76
2024-02-02T11:37:31.560Z,73.55
2024-02-02T11:47:44.326Z,73.49
2024-02-02T11:57:52.326Z,73.46
2024-02-02T12:08:02.432Z,73.28
2024-02-02T12:18:06.774Z,73.18
2024-02-02T12:28:10.597Z,73.31
2024-02-02T12:38:23.827Z,73.25
2024-02-02T12:48:27.766Z,73.13
2024-02-02T12:58:32.187Z,73.33
2024-02-02T13:08:39.645Z,73.46
2024-02-02T13:18:46.114Z,73.59
2024-02-02T13:28:50.652Z,73.68
2024-02-02T13:39:01.508Z,74.07
2024-02-02T13:49:07.845Z,74.18
2024-02-02T13:59:19.456Z,74.35
2024-02-02T14:09:24.042Z,74.80
2024-02-02T14:19:27.913Z,74.92
2024-02-02T14:29:41.919Z,75.38
2024-02-02T14:39:48.243Z,75.68
2024-02-02T14:49:52.702Z,76.01
2024-02-02T14:59:58.750Z,76.26
2024-02-02T15:10:06.710Z,76.66
2024-02-02T15:20:11.902Z,76.85
2024-02-02T15:30:16.171Z,77.33
2024-02-02T15:40:21.755Z,77.61
2024-02-02T15:50:28.146Z,77.63
2024-02-02T16:00:32.728Z,78.01
2024-02-02T16:10:37.466Z,78.33
2024-02-02T16:21:10.171Z,78.62
2024-02-02T16:31:17.016Z,78.83
2024-02-02T16:41:29.801Z,79.16
2024-02-02T16:51:36.661Z,79.27
2024-02-02T17:01:41.691Z,79.68
2024-02-02T17:11:47.164Z,79.89
2024-02-02T17:21:51.517Z,80.45
2024-02-02T17:31:55.507Z,80.49
2024-02-02T17:42:04.067Z,80.69
2024-02-02T17:52:15.236Z,81.02
2024-02-02T18:02:21.325Z,81.03
2024-02-02T18:12:25.757Z,81.43
2024-02-02T18:22:33.562Z,81.46
2024-02-02T18:32:38.528Z,81.51
2024-02-02T18:42:47.875Z,81.84
2024-02-02T18:52:58.941Z,82.34
2024-02-02T19:03:03.225Z,82.32
2024-02-02T19:13:06.979Z,82.46
2024-02-02T19:23:11.449Z,82.75
2024-02-02T19:33:15.759Z,82.78
2024-02-02T19:43:19.612Z,82.80
2024-02-02T19:53:23.717Z,83.35
2024-02-02T20:03:30.722Z,83.33
2024-02-02T20:13:39.219Z,83.47
2024-02-02T20:23:49.793Z,83.28
2024-02-02T20:34:03.849Z,83.49
2024-02-02T20:44:08.017Z,83.59
2024-02-02T20:54:18.184Z,83.93
2024-02-02T21:04:22.397Z,83.97
2024-02-02T21:14:27.083Z,84.25
2024-02-02T21:24:31.137Z,84.38
2024-02-02T21:34:38.259Z,84.56
2024-02-02T21:44:43.905Z,84.77
2024-02-02T21:54:48.375Z,84.94
2024-02-02T22:04:56.465Z,85.30
2024-02-02T22:15:00.964Z,85.18
2024-02-02T22:25:05.104Z,85.37
2024-02-02T22:35:09.876Z,85.57
2024-02-02T22:45:13.641Z,85.77
2024-02-02T22:55:25.487Z,86.05
2024-02-02T23:05:32.608Z,85.96
2024-02-02T23:15:36.642Z,86.17
2024-02-02T23:25:40.405Z,86.07
2024-02-02T23:35:44.149Z,86.44
2024-02-02T23:45:47.816Z,86.58
2024-02-02T23:55:51.430Z,86.68
